Time;durP1;ratioP1;P1;durP2;ratioP2;P2;SDS_P1;SDS_P2;PMS_P1;PMS_P2;Temp;Humidity;BMP_temperature;BMP_pressure;BME280_temperature;BME280_humidity;BME280_pressure;Samples;Min_cycle;Max_cycle;Signal;HPM_P1;HPM_P2
2021/11/24 00:01:29;;;;;;;48.10;28.17;;;;;;;3.95;89.49;99772.55;2248270;79;21319;-82
2021/11/24 00:04:29;;;;;;;51.77;29.43;;;;;;;3.97;89.80;99769.64;2247830;79;21007;-82
2021/11/24 00:07:30;;;;;;;44.87;28.50;;;;;;;3.97;89.59;99774.40;2248221;79;20892;-82
2021/11/24 00:10:32;;;;;;;47.93;30.27;;;;;;;3.95;89.49;99769.55;2248196;79;20995;-79
2021/11/24 00:13:33;;;;;;;45.20;29.37;;;;;;;3.94;89.59;99768.19;2248102;79;21016;-79
2021/11/24 00:16:33;;;;;;;46.83;30.03;;;;;;;3.92;89.42;99771.09;2248142;79;20979;-80
2021/11/24 00:19:34;;;;;;;43.67;27.93;;;;;;;3.94;89.41;99774.23;2248140;79;20948;-80
2021/11/24 00:22:34;;;;;;;42.70;27.53;;;;;;;3.97;89.30;99769.64;2247877;79;20995;-80
2021/11/24 00:25:35;;;;;;;38.13;26.77;;;;;;;3.96;89.16;99759.70;2248240;79;21617;-80
2021/11/24 00:28:35;;;;;;;38.83;25.93;;;;;;;3.99;89.25;99771.89;2248337;79;21052;-80
2021/11/24 00:31:36;;;;;;;40.50;27.73;;;;;;;3.99;89.18;99770.61;2247965;79;20948;-79
2021/11/24 00:34:36;;;;;;;45.03;28.83;;;;;;;3.99;88.90;99763.74;2248113;79;21367;-80
2021/11/24 00:37:37;;;;;;;49.60;31.60;;;;;;;4.01;89.06;99761.23;2248297;79;20960;-81
2021/11/24 00:40:38;;;;;;;42.90;30.63;;;;;;;4.02;89.16;99758.73;2248483;79;20968;-80
2021/11/24 00:43:39;;;;;;;50.90;34.13;;;;;;;4.06;89.02;99757.20;2248079;79;20942;-80
2021/11/24 00:46:39;;;;;;;46.63;31.53;;;;;;;4.07;88.82;99753.80;2248265;79;20928;-81
2021/11/24 00:49:40;;;;;;;44.07;31.63;;;;;;;4.10;88.80;99756.55;2253566;78;21059;-80
2021/11/24 00:52:40;;;;;;;40.57;28.77;;;;;;;4.14;88.71;99755.89;2268575;78;20970;-81
2021/11/24 00:55:41;;;;;;;37.60;25.70;;;;;;;4.18;88.53;99758.23;2268638;78;20959;-80
2021/11/24 00:58:42;;;;;;;36.73;25.70;;;;;;;4.22;88.39;99755.00;2268684;78;21316;-80
2021/11/24 01:01:42;;;;;;;37.53;26.93;;;;;;;4.24;88.35;99752.97;2268743;78;20983;-81
2021/11/24 01:04:43;;;;;;;40.50;28.87;;;;;;;4.27;88.06;99750.95;2268338;78;20944;-81
2021/11/24 01:07:43;;;;;;;38.00;26.40;;;;;;;4.27;87.97;99749.66;2268664;78;21339;-81
2021/11/24 01:10:44;;;;;;;38.73;27.77;;;;;;;4.28;87.84;99750.14;2269073;78;21002;-81
2021/11/24 01:13:44;;;;;;;42.93;28.63;;;;;;;4.28;87.72;99747.55;2268603;78;20931;-81
2021/11/24 01:16:45;;;;;;;44.37;28.43;;;;;;;4.27;87.72;99755.72;2268557;78;20956;-81
2021/11/24 01:19:45;;;;;;;38.87;29.43;;;;;;;4.26;87.76;99753.05;2268718;78;21343;-80
2021/11/24 01:22:46;;;;;;;35.40;24.63;;;;;;;4.25;87.64;99747.41;2268563;78;21014;-81
2021/11/24 01:25:46;;;;;;;35.93;26.53;;;;;;;4.23;87.63;99746.03;2268541;78;20935;-80
2021/11/24 01:28:47;;;;;;;35.50;27.13;;;;;;;4.22;87.74;99745.55;2268591;78;21351;-81
2021/11/24 01:31:47;;;;;;;33.87;25.70;;;;;;;4.23;87.68;99737.39;2268643;78;20948;-80
2021/11/24 01:34:48;;;;;;;34.03;25.07;;;;;;;4.20;87.54;99729.08;2268474;78;20943;-82
2021/11/24 01:37:48;;;;;;;32.97;24.90;;;;;;;4.20;87.60;99730.37;2268508;78;20992;-81
2021/11/24 01:40:49;;;;;;;35.63;26.73;;;;;;;4.20;87.59;99727.78;2268652;78;20958;-80
2021/11/24 01:43:49;;;;;;;32.23;24.53;;;;;;;4.19;87.54;99732.47;2268495;78;20912;-80
2021/11/24 01:46:50;;;;;;;35.73;26.47;;;;;;;4.14;87.44;99732.23;2268913;78;20979;-78
2021/11/24 01:49:51;;;;;;;35.30;25.03;;;;;;;4.11;87.48;99733.77;2265380;78;21004;-81
2021/11/24 01:52:51;;;;;;;36.53;25.87;;;;;;;4.09;87.57;99735.39;2254945;79;21031;-80
2021/11/24 01:55:52;;;;;;;37.80;25.10;;;;;;;4.06;87.61;99729.66;2254672;79;21308;-81
2021/11/24 01:58:52;;;;;;;35.50;25.53;;;;;;;4.05;87.55;99728.30;2254248;79;21075;-81
2021/11/24 02:01:53;;;;;;;37.87;26.57;;;;;;;3.98;87.63;99721.92;2254623;79;20968;-82
2021/11/24 02:04:53;;;;;;;35.33;26.80;;;;;;;3.94;87.70;99722.58;2254537;79;20975;-81
2021/11/24 02:07:54;;;;;;;32.00;23.93;;;;;;;3.92;87.81;99717.73;2254722;79;21034;-82
2021/11/24 02:10:54;;;;;;;37.70;26.63;;;;;;;3.93;87.76;99725.97;2255045;79;20987;-80
2021/11/24 02:13:55;;;;;;;38.27;27.00;;;;;;;3.87;87.73;99722.17;2255405;79;20924;-81
2021/11/24 02:16:55;;;;;;;31.63;24.93;;;;;;;3.87;87.87;99724.77;2255739;79;20951;-82
2021/11/24 02:19:56;;;;;;;35.53;24.23;;;;;;;3.89;87.95;99724.44;2255764;79;21296;-81
2021/11/24 02:22:56;;;;;;;32.47;23.83;;;;;;;3.91;87.93;99722.41;2255328;79;21019;-82
2021/11/24 02:25:57;;;;;;;31.60;24.87;;;;;;;3.92;87.95;99720.31;2255551;79;20987;-81
2021/11/24 02:28:57;;;;;;;33.20;24.43;;;;;;;3.91;87.87;99713.78;2255195;79;21011;-81
2021/11/24 02:32:01;;;;;;;29.73;23.30;;;;;;;3.91;87.81;99712.48;2254796;79;21075;-82
2021/11/24 02:35:01;;;;;;;35.70;23.67;;;;;;;3.90;88.02;99714.19;2254689;79;20948;-82
2021/11/24 02:38:03;;;;;;;33.50;25.03;;;;;;;3.90;87.99;99709.42;2254687;79;21336;-81
2021/11/24 02:41:03;;;;;;;40.20;27.03;;;;;;;3.87;87.95;99703.70;2254453;79;20960;-81
2021/11/24 02:44:04;;;;;;;35.93;25.30;;;;;;;3.84;88.08;99704.42;2254278;79;20979;-78
2021/11/24 02:47:04;;;;;;;31.20;22.50;;;;;;;3.83;88.08;99702.65;2255655;79;21312;-82
2021/11/24 02:50:08;;;;;;;28.30;20.27;;;;;;;3.80;88.16;99689.58;2252834;79;21003;-82
2021/11/24 02:53:08;;;;;;;28.53;21.87;;;;;;;3.84;88.15;99700.55;2247782;79;21047;-81
2021/11/24 02:56:09;;;;;;;22.93;18.50;;;;;;;3.85;88.21;99692.39;2248551;79;20929;-85
2021/11/24 02:59:10;;;;;;;28.87;19.47;;;;;;;3.82;88.10;99691.84;2249204;79;20905;-84
2021/11/24 03:02:10;;;;;;;26.17;19.80;;;;;;;3.80;88.14;99685.70;2248799;79;20928;-83
2021/11/24 03:05:11;;;;;;;38.47;22.20;;;;;;;3.77;88.32;99685.95;2248522;79;20955;-82
2021/11/24 03:08:11;;;;;;;32.83;21.17;;;;;;;3.73;88.32;99681.44;2248836;79;20936;-82
2021/11/24 03:11:12;;;;;;;26.90;17.77;;;;;;;3.72;88.36;99686.11;2248171;79;21297;-81
2021/11/24 03:14:12;;;;;;;23.97;17.30;;;;;;;3.72;88.42;99681.84;2248574;79;20945;-83
2021/11/24 03:17:13;;;;;;;21.70;17.97;;;;;;;3.73;88.44;99679.73;2248386;79;20979;-83
2021/11/24 03:20:13;;;;;;;24.43;17.97;;;;;;;3.74;88.37;99680.63;2248215;79;20952;-82
2021/11/24 03:23:14;;;;;;;24.97;18.20;;;;;;;3.77;88.46;99682.96;2248123;79;21012;-81
2021/11/24 03:26:15;;;;;;;25.70;18.43;;;;;;;3.78;88.41;99679.97;2248113;79;20979;-81
2021/11/24 03:29:16;;;;;;;23.63;18.70;;;;;;;3.86;88.53;99691.99;2248299;79;20983;-82
2021/11/24 03:32:16;;;;;;;23.97;20.03;;;;;;;3.93;88.46;99685.05;2248480;79;20960;-81
2021/11/24 03:35:17;;;;;;;29.20;19.53;;;;;;;3.98;88.21;99689.63;2249209;79;20964;-83
2021/11/24 03:38:17;;;;;;;23.97;18.97;;;;;;;4.02;88.12;99681.23;2248504;79;21348;-82
2021/11/24 03:41:18;;;;;;;23.60;17.27;;;;;;;4.04;87.98;99683.89;2248077;79;20948;-81
2021/11/24 03:44:18;;;;;;;21.63;18.13;;;;;;;4.09;87.95;99682.42;2247945;79;20964;-83
2021/11/24 03:47:19;;;;;;;21.23;16.30;;;;;;;4.06;87.67;99677.99;2248288;79;21297;-82
2021/11/24 03:50:19;;;;;;;24.17;17.90;;;;;;;4.01;87.45;99674.69;2250004;79;20968;-82
2021/11/24 03:53:20;;;;;;;22.40;17.30;;;;;;;3.96;87.50;99669.30;2254190;79;21007;-82
2021/11/24 03:56:20;;;;;;;18.33;16.17;;;;;;;3.93;87.56;99669.14;2254579;79;20944;-82
2021/11/24 03:59:21;;;;;;;22.23;16.47;;;;;;;3.86;87.34;99661.00;2254562;79;21336;-80
2021/11/24 04:02:21;;;;;;;19.77;15.93;;;;;;;3.78;87.41;99661.49;2254283;79;20956;-81
2021/11/24 04:05:22;;;;;;;20.07;16.50;;;;;;;3.75;87.38;99666.50;2254625;79;21003;-83
2021/11/24 04:08:22;;;;;;;20.93;16.13;;;;;;;3.72;87.36;99661.18;2254646;79;21363;-83
2021/11/24 04:11:23;;;;;;;19.33;14.93;;;;;;;3.72;87.43;99661.58;2255286;79;20968;-84
2021/11/24 04:14:23;;;;;;;19.77;15.70;;;;;;;3.77;87.44;99660.13;2255361;79;20963;-82
2021/11/24 04:17:24;;;;;;;20.07;14.97;;;;;;;3.80;87.39;99654.71;2254821;79;20951;-84
2021/11/24 04:20:24;;;;;;;18.37;14.63;;;;;;;3.76;87.35;99654.07;2254877;79;20956;-82
2021/11/24 04:23:25;;;;;;;18.03;14.50;;;;;;;3.76;87.53;99657.95;2254168;79;21046;-82
2021/11/24 04:26:26;;;;;;;19.63;14.60;;;;;;;3.78;87.44;99652.86;2255192;79;20995;-82
2021/11/24 04:29:26;;;;;;;19.23;14.53;;;;;;;3.72;87.38;99657.30;2254775;79;20983;-84
2021/11/24 04:32:27;;;;;;;16.23;14.43;;;;;;;3.71;87.59;99658.52;2255000;79;21400;-84
2021/11/24 04:35:27;;;;;;;17.10;14.30;;;;;;;3.71;87.51;99659.41;2254735;79;20936;-82
2021/11/24 04:38:28;;;;;;;18.50;15.47;;;;;;;4.04;89.26;99665.41;2254947;79;21003;-84
2021/11/24 04:41:29;;;;;;;16.00;14.17;;;;;;;4.02;87.35;99658.39;2255089;79;20994;-84
2021/11/24 04:44:29;;;;;;;17.07;14.10;;;;;;;3.91;86.95;99658.25;2255052;79;20932;-83
2021/11/24 04:47:30;;;;;;;19.70;14.43;;;;;;;3.83;86.92;99660.03;2254414;79;20980;-83
2021/11/24 04:50:30;;;;;;;17.07;14.27;;;;;;;3.79;87.02;99662.38;2254466;79;20987;-82
2021/11/24 04:53:31;;;;;;;19.50;15.80;;;;;;;3.76;87.12;99668.68;2253321;79;21371;-84
2021/11/24 04:56:32;;;;;;;17.37;13.97;;;;;;;3.75;87.21;99665.61;2253431;79;20944;-82
2021/11/24 04:59:32;;;;;;;22.53;16.63;;;;;;;3.70;87.18;99664.09;2253842;79;21305;-83
2021/11/24 05:02:33;;;;;;;21.10;15.73;;;;;;;3.70;87.38;99656.75;2254461;79;20968;-83
2021/11/24 05:05:33;;;;;;;18.47;14.77;;;;;;;3.69;87.23;99654.97;2253782;79;21319;-84
2021/11/24 05:08:35;;;;;;;19.80;15.90;;;;;;;3.69;87.13;99653.68;2253478;79;20983;-81
2021/11/24 05:11:36;;;;;;;20.20;15.23;;;;;;;3.68;87.14;99653.20;2254089;79;20932;-83
2021/11/24 05:14:37;;;;;;;16.70;14.63;;;;;;;3.71;87.30;99650.37;2253314;79;21026;-84
2021/11/24 05:17:39;;;;;;;17.43;14.83;;;;;;;3.76;87.19;99648.91;2253504;79;21323;-83
2021/11/24 05:20:41;;;;;;;18.83;15.13;;;;;;;3.77;86.98;99652.38;2253120;79;20979;-82
2021/11/24 05:23:43;;;;;;;18.30;15.03;;;;;;;3.83;87.07;99656.56;2252270;79;21021;-82
2021/11/24 05:26:44;;;;;;;20.43;15.53;;;;;;;3.88;87.07;99655.51;2252334;79;20963;-83
2021/11/24 05:29:44;;;;;;;18.50;14.73;;;;;;;3.93;86.87;99664.38;2253017;79;21014;-81
2021/11/24 05:32:45;;;;;;;23.23;15.83;;;;;;;3.94;86.82;99663.16;2252395;79;20952;-83
2021/11/24 05:35:45;;;;;;;17.90;14.73;;;;;;;3.93;86.69;99665.67;2253182;79;21383;-84
2021/11/24 05:38:46;;;;;;;21.93;16.23;;;;;;;3.92;86.73;99666.48;2254398;79;20951;-84
2021/11/24 05:41:47;;;;;;;23.67;17.00;;;;;;;3.86;86.71;99664.88;2253845;79;20983;-83
2021/11/24 05:44:48;;;;;;;20.57;16.27;;;;;;;3.86;86.97;99666.16;2253666;79;20931;-82
2021/11/24 05:47:55;;;;;;;27.17;17.63;;;;;;;3.87;86.92;99664.06;2252653;79;21066;-83
2021/11/24 05:50:55;;;;;;;27.33;19.53;;;;;;;3.90;86.93;99660.34;2252904;79;21034;-81
2021/11/24 05:53:56;;;;;;;21.90;16.17;;;;;;;4.77;94.48;99652.63;2253288;79;21034;-83
2021/11/24 05:56:57;;;;;;;16.77;14.53;;;;;;;6.49;93.82;99660.78;2252832;79;21319;-77
2021/11/24 05:59:57;;;;;;;16.23;13.23;;;;;;;7.96;85.99;99645.68;2251629;79;20963;-76
2021/11/24 06:02:58;;;;;;;16.43;13.30;;;;;;;7.16;80.55;99648.78;2251552;79;21351;-76
2021/11/24 06:05:58;;;;;;;16.67;13.87;;;;;;;6.34;79.75;99661.92;2251868;79;20912;-77
2021/11/24 06:08:59;;;;;;;15.90;13.77;;;;;;;5.73;80.41;99659.24;2252060;79;20994;-76
2021/11/24 06:11:59;;;;;;;16.07;12.93;;;;;;;5.29;80.89;99658.97;2251947;79;20931;-77
2021/11/24 06:15:00;;;;;;;16.63;13.57;;;;;;;4.98;81.51;99662.70;2253071;79;21355;-79
2021/11/24 06:18:00;;;;;;;14.93;12.87;;;;;;;4.78;82.23;99660.88;2252816;79;20908;-78
2021/11/24 06:21:01;;;;;;;17.13;13.60;;;;;;;4.62;82.61;99653.20;2251897;79;20972;-77
2021/11/24 06:24:02;;;;;;;18.50;14.00;;;;;;;4.50;82.96;99657.78;2251655;79;21038;-78
2021/11/24 06:27:02;;;;;;;22.20;16.33;;;;;;;4.35;83.15;99663.09;2253069;79;20979;-77
2021/11/24 06:30:03;;;;;;;22.43;16.10;;;;;;;4.24;83.57;99665.11;2252512;79;20955;-78
2021/11/24 06:33:03;;;;;;;30.87;22.80;;;;;;;4.18;83.96;99672.96;2252825;79;21276;-76
2021/11/24 06:36:04;;;;;;;37.13;26.53;;;;;;;4.12;84.19;99665.38;2252590;79;20944;-75
2021/11/24 06:39:04;;;;;;;29.13;23.23;;;;;;;4.08;84.35;99667.33;2253283;79;20975;-77
2021/11/24 06:42:05;;;;;;;26.77;20.97;;;;;;;4.09;84.64;99669.51;2252559;79;20940;-77
2021/11/24 06:45:05;;;;;;;28.50;20.80;;;;;;;4.08;84.71;99667.73;2251628;79;21320;-78
2021/11/24 06:48:06;;;;;;;85.30;44.47;;;;;;;4.10;84.77;99671.28;2252269;79;20908;-77
2021/11/24 06:51:06;;;;;;;268.87;133.67;;;;;;;4.12;84.92;99670.95;2251791;79;20983;-77
2021/11/24 06:54:07;;;;;;;123.57;73.97;;;;;;;4.13;84.97;99669.73;2251490;79;21493;-77
2021/11/24 06:57:07;;;;;;;60.20;33.73;;;;;;;4.14;84.99;99662.47;2252288;79;21080;-78
2021/11/24 07:00:08;;;;;;;31.60;22.57;;;;;;;4.17;85.04;99672.07;2252232;79;21035;-76
2021/11/24 07:03:09;;;;;;;24.67;17.03;;;;;;;4.16;85.11;99672.88;2252770;79;21302;-77
2021/11/24 07:06:09;;;;;;;27.23;19.33;;;;;;;4.18;85.06;99678.12;2252879;79;20948;-76
2021/11/24 07:09:11;;;;;;;27.93;21.23;;;;;;;4.24;85.21;99679.72;2252428;79;20968;-77
2021/11/24 07:12:11;;;;;;;28.50;18.43;;;;;;;4.28;85.14;99670.91;2251561;79;20943;-77
2021/11/24 07:15:12;;;;;;;24.30;17.23;;;;;;;4.33;85.04;99677.59;2251439;79;21251;-79
2021/11/24 07:18:12;;;;;;;25.87;18.57;;;;;;;4.36;84.92;99677.78;2250924;79;20932;-76
2021/11/24 07:21:13;;;;;;;28.87;19.50;;;;;;;4.40;85.04;99678.02;2251415;79;21375;-76
2021/11/24 07:24:14;;;;;;;24.67;18.10;;;;;;;4.45;84.78;99675.25;2250636;79;21026;-77
2021/11/24 07:27:14;;;;;;;23.60;17.10;;;;;;;4.54;84.85;99676.50;2250963;79;21392;-76
2021/11/24 07:30:17;;;;;;;22.67;15.53;;;;;;;4.61;84.81;99674.29;2250945;79;21006;-77
2021/11/24 07:36:55;;;;;;;18.47;14.27;;;;;;;4.72;84.36;99676.98;2252018;79;20936;-77
2021/11/24 07:39:56;;;;;;;18.60;14.87;;;;;;;4.74;84.16;99671.89;2252371;79;20967;-78
2021/11/24 07:42:56;;;;;;;17.63;15.10;;;;;;;4.77;84.12;99672.03;2251855;79;20980;-77
2021/11/24 07:45:57;;;;;;;18.73;14.40;;;;;;;4.79;83.81;99674.28;2251966;79;21351;-76
2021/11/24 07:48:58;;;;;;;19.30;14.30;;;;;;;4.79;83.99;99671.30;2252427;79;21030;-76
2021/11/24 07:51:58;;;;;;;23.57;16.60;;;;;;;4.84;83.95;99671.52;2252102;79;21018;-76
2021/11/24 07:54:59;;;;;;;22.37;15.40;;;;;;;4.87;83.87;99676.83;2252135;79;20936;-77
2021/11/24 07:57:59;;;;;;;20.17;15.83;;;;;;;4.91;83.95;99670.98;2252744;79;21011;-76
2021/11/24 08:01:00;;;;;;;22.73;17.27;;;;;;;4.95;83.73;99672.91;2251036;79;20925;-76
2021/11/24 08:04:01;;;;;;;24.53;16.20;;;;;;;5.02;83.91;99672.38;2251366;79;21320;-77
2021/11/24 08:07:03;;;;;;;22.60;17.23;;;;;;;5.03;83.22;99667.68;2251570;79;20967;-77
2021/11/24 08:10:03;;;;;;;21.83;16.80;;;;;;;5.08;83.31;99667.48;2252086;79;20967;-76
2021/11/24 08:13:04;;;;;;;25.87;17.63;;;;;;;5.09;83.22;99668.38;2251559;79;20912;-76
2021/11/24 08:16:04;;;;;;;25.63;17.67;;;;;;;5.15;83.23;99668.66;2251621;79;20983;-76
2021/11/24 08:19:05;;;;;;;22.57;16.80;;;;;;;5.24;83.18;99669.52;2252227;79;21288;-76
2021/11/24 08:22:06;;;;;;;24.17;17.60;;;;;;;5.30;83.04;99664.63;2251518;79;20955;-75
2021/11/24 08:25:07;;;;;;;26.50;19.00;;;;;;;5.35;82.94;99666.60;2251586;79;21056;-75
2021/11/24 08:28:08;;;;;;;28.03;20.47;;;;;;;5.35;82.43;99665.72;2252233;79;21420;-76
2021/11/24 08:31:08;;;;;;;28.13;20.03;;;;;;;5.37;82.76;99668.85;2252715;79;21356;-79
2021/11/24 08:34:09;;;;;;;31.07;18.67;;;;;;;5.47;82.73;99674.45;2253036;79;20979;-79
2021/11/24 08:37:09;;;;;;;27.73;18.77;;;;;;;5.50;82.27;99672.87;2253369;79;20959;-78
2021/11/24 08:40:10;;;;;;;27.63;19.57;;;;;;;5.54;81.91;99672.20;2253674;79;21375;-79
2021/11/24 08:43:10;;;;;;;32.70;21.80;;;;;;;5.50;81.89;99671.59;2253725;79;20967;-80
2021/11/24 08:46:11;;;;;;;42.30;24.97;;;;;;;5.53;82.25;99667.84;2253951;79;20924;-81
2021/11/24 08:49:12;;;;;;;30.57;20.17;;;;;;;5.64;82.22;99669.61;2253759;79;20983;-80
2021/11/24 08:52:12;;;;;;;45.33;25.47;;;;;;;5.67;81.54;99669.34;2258442;78;20998;-78
2021/11/24 08:55:13;;;;;;;28.30;19.93;;;;;;;5.64;81.48;99679.56;2266190;78;20952;-79
2021/11/24 08:58:14;;;;;;;30.33;20.60;;;;;;;5.68;81.77;99683.17;2266424;78;20943;-83
2021/11/24 09:01:14;;;;;;;24.47;17.97;;;;;;;5.69;81.74;99675.47;2267046;78;21342;-80
2021/11/24 09:04:15;;;;;;;27.30;19.03;;;;;;;5.73;81.36;99673.49;2267062;78;20951;-80
2021/11/24 09:07:15;;;;;;;25.53;17.53;;;;;;;5.74;81.46;99677.85;2266463;78;21006;-77
2021/11/24 09:10:16;;;;;;;24.00;18.40;;;;;;;5.82;81.37;99678.59;2266648;78;20943;-79
2021/11/24 09:13:16;;;;;;;21.57;17.73;;;;;;;5.84;80.74;99682.14;2266215;78;21358;-82
2021/11/24 09:16:17;;;;;;;23.63;17.70;;;;;;;5.82;81.04;99671.71;2267403;78;20943;-80
2021/11/24 09:19:17;;;;;;;27.00;17.57;;;;;;;5.87;80.63;99677.98;2266628;78;20967;-79
2021/11/24 09:22:18;;;;;;;27.40;19.20;;;;;;;5.94;81.20;99673.98;2266862;78;20951;-79
2021/11/24 09:25:20;;;;;;;25.17;17.80;;;;;;;5.99;80.39;99676.36;2267480;78;21319;-80
2021/11/24 09:28:21;;;;;;;23.70;17.73;;;;;;;6.08;80.83;99669.42;2267095;78;20947;-80
2021/11/24 09:31:21;;;;;;;23.97;16.17;;;;;;;6.14;79.79;99663.20;2267668;78;20990;-79
2021/11/24 09:34:22;;;;;;;22.17;15.50;;;;;;;6.17;79.30;99659.03;2266807;78;21283;-78
2021/11/24 09:37:22;;;;;;;19.83;14.77;;;;;;;6.21;79.63;99650.56;2267842;78;20987;-80
2021/11/24 09:40:23;;;;;;;19.73;15.33;;;;;;;6.26;78.33;99652.94;2266522;78;20983;-79
2021/11/24 09:43:23;;;;;;;21.63;17.10;;;;;;;6.28;79.36;99648.70;2266750;78;20940;-79
2021/11/24 09:46:24;;;;;;;20.67;15.93;;;;;;;6.36;79.43;99654.20;2267027;78;20970;-78
2021/11/24 09:49:25;;;;;;;19.63;15.00;;;;;;;6.46;79.19;99650.28;2266662;78;20963;-79
2021/11/24 09:52:25;;;;;;;18.53;13.97;;;;;;;6.59;79.13;99649.95;2255261;78;20949;-78
2021/11/24 09:55:26;;;;;;;18.90;13.50;;;;;;;6.63;78.44;99650.13;2239719;79;21355;-79
2021/11/24 09:58:26;;;;;;;15.63;12.00;;;;;;;6.71;77.84;99646.13;2240364;79;20929;-79
2021/11/24 10:01:27;;;;;;;19.00;14.40;;;;;;;6.81;77.30;99652.98;2239368;79;20976;-79
2021/11/24 10:04:28;;;;;;;21.57;14.27;;;;;;;6.75;77.50;99644.55;2239915;79;20988;-78
2021/11/24 10:07:28;;;;;;;20.37;14.73;;;;;;;6.72;77.63;99640.53;2239612;79;21369;-81
2021/11/24 10:10:29;;;;;;;18.37;13.60;;;;;;;6.68;77.58;99636.94;2239208;79;21028;-79
2021/11/24 10:13:29;;;;;;;18.23;13.10;;;;;;;6.57;77.33;99637.33;2239858;79;20952;-79
2021/11/24 10:16:30;;;;;;;16.40;12.60;;;;;;;6.53;77.47;99632.43;2240061;79;21367;-79
2021/11/24 10:19:30;;;;;;;13.47;10.63;;;;;;;6.54;77.09;99632.02;2239530;79;20964;-79
2021/11/24 10:22:32;;;;;;;15.87;12.03;;;;;;;6.56;76.70;99633.84;2239295;79;20963;-77
2021/11/24 10:25:32;;;;;;;14.50;11.00;;;;;;;6.57;77.32;99629.14;2239499;79;20996;-76
2021/11/24 10:28:36;;;;;;;15.50;10.97;;;;;;;6.60;76.08;99624.06;2239776;79;21343;-78
2021/11/24 10:31:37;;;;;;;13.57;10.37;;;;;;;6.56;76.84;99619.58;2238492;79;20952;-77
2021/11/24 10:34:38;;;;;;;13.53;10.97;;;;;;;6.59;76.51;99612.34;2238441;79;21376;-78
2021/11/24 10:37:39;;;;;;;13.47;11.40;;;;;;;6.60;76.82;99611.52;2238332;79;20974;-77
2021/11/24 10:40:40;;;;;;;15.13;10.50;;;;;;;6.62;75.67;99616.34;2238744;79;20955;-78
2021/11/24 10:43:41;;;;;;;16.37;11.90;;;;;;;6.60;75.92;99614.11;2239180;79;20944;-77
2021/11/24 10:46:42;;;;;;;16.33;11.47;;;;;;;6.59;76.16;99611.92;2239078;79;21324;-76
2021/11/24 10:49:44;;;;;;;13.70;10.70;;;;;;;6.74;76.62;99612.05;2238024;79;20968;-77
2021/11/24 10:52:44;;;;;;;13.47;10.67;;;;;;;6.77;75.39;99609.16;2244995;79;20975;-77
2021/11/24 10:55:45;;;;;;;18.57;11.33;;;;;;;6.81;75.27;99611.47;2252710;79;21592;-76
2021/11/24 10:58:45;;;;;;;15.17;11.00;;;;;;;6.86;75.41;99598.25;2252123;79;20951;-76
2021/11/24 11:01:46;;;;;;;13.50;10.70;;;;;;;7.01;75.75;99596.27;2252892;79;20952;-77
2021/11/24 11:04:46;;;;;;;20.97;11.60;;;;;;;7.06;73.90;99589.95;2252840;79;21426;-77
2021/11/24 11:07:47;;;;;;;17.07;12.53;;;;;;;6.97;74.76;99590.08;2251481;79;21007;-77
2021/11/24 11:10:49;;;;;;;20.27;11.83;;;;;;;6.86;75.08;99584.87;2250902;79;21731;-77
2021/11/24 11:13:49;;;;;;;17.83;11.30;;;;;;;6.69;74.86;99591.12;2252180;79;20987;-76
2021/11/24 11:16:50;;;;;;;15.23;11.10;;;;;;;6.69;74.86;99591.12;2252645;79;20936;-77
2021/11/24 11:19:52;;;;;;;17.27;12.40;;;;;;;6.59;75.14;99591.58;2252994;79;20974;-76
2021/11/24 11:22:53;;;;;;;16.23;12.53;;;;;;;6.53;75.50;99586.16;2252164;79;21669;-76
2021/11/24 11:25:54;;;;;;;16.93;12.10;;;;;;;6.48;75.35;99589.86;2251881;79;20982;-77
2021/11/24 11:28:55;;;;;;;17.13;12.80;;;;;;;6.55;75.74;99587.09;2228694;78;20963;-76
2021/11/24 11:31:55;;;;;;;16.20;12.50;;;;;;;6.60;75.59;99578.67;2252007;79;20992;-76
2021/11/24 11:34:56;;;;;;;17.00;12.83;;;;;;;6.69;75.79;99573.84;2252238;79;20924;-76
2021/11/24 11:37:56;;;;;;;15.57;12.90;;;;;;;6.76;75.66;99564.58;2252012;79;20935;-76
2021/11/24 11:40:57;;;;;;;18.00;12.80;;;;;;;6.77;75.34;99561.16;2251327;79;20959;-77
2021/11/24 11:43:57;;;;;;;15.87;12.00;;;;;;;6.80;75.35;99566.47;2251017;79;20944;-77
2021/11/24 11:46:58;;;;;;;15.37;12.47;;;;;;;6.88;75.78;99563.75;2251316;79;20917;-76
2021/11/24 11:49:58;;;;;;;16.97;12.80;;;;;;;6.92;75.64;99557.84;2252278;79;20991;-77
2021/11/24 11:53:02;;;;;;;20.77;14.40;;;;;;;6.98;75.83;99554.62;2251363;79;20968;-77
2021/11/24 11:56:02;;;;;;;17.73;13.70;;;;;;;7.01;74.92;99547.84;2250854;79;21027;-77
2021/11/24 11:59:03;;;;;;;19.60;12.67;;;;;;;6.95;73.60;99543.72;2251410;79;20960;-77
2021/11/24 12:02:05;;;;;;;15.57;12.13;;;;;;;6.84;73.80;99534.62;2252255;79;20905;-77
2021/11/24 12:05:05;;;;;;;17.03;11.33;;;;;;;6.80;74.26;99536.63;2253369;79;21398;-75
2021/11/24 12:08:06;;;;;;;18.67;12.40;;;;;;;6.81;74.18;99535.80;2252910;79;21014;-76
2021/11/24 12:11:06;;;;;;;13.70;10.77;;;;;;;6.78;74.40;99533.09;2252724;79;21453;-76
2021/11/24 12:14:07;;;;;;;20.17;12.63;;;;;;;6.66;73.41;99528.73;2252446;79;20908;-76
2021/11/24 12:17:07;;;;;;;23.90;12.87;;;;;;;6.58;73.84;99529.73;2252339;79;20904;-76
2021/11/24 12:20:08;;;;;;;16.77;12.07;;;;;;;6.56;74.33;99527.50;2251406;79;20951;-75
2021/11/24 12:23:08;;;;;;;23.27;11.13;;;;;;;6.50;73.66;99528.97;2251396;79;20940;-76
2021/11/24 12:26:09;;;;;;;17.57;12.40;;;;;;;6.46;73.23;99524.49;2253234;79;21300;-76
2021/11/24 12:29:09;;;;;;;15.63;10.53;;;;;;;6.31;74.38;99527.38;2252941;79;20979;-76
2021/11/24 12:32:10;;;;;;;18.30;11.03;;;;;;;6.25;74.33;99523.24;2252801;79;20948;-76
2021/11/24 12:35:10;;;;;;;15.03;10.90;;;;;;;6.22;74.56;99525.30;2252532;79;21363;-77
2021/11/24 12:38:11;;;;;;;20.80;13.23;;;;;;;6.26;74.27;99526.31;2252468;79;20904;-77
2021/11/24 12:41:11;;;;;;;16.60;11.80;;;;;;;6.27;74.34;99522.48;2252735;79;20998;-77
2021/11/24 12:44:14;;;;;;;17.33;11.13;;;;;;;6.32;74.57;99520.06;2253051;79;20936;-77
2021/11/24 12:47:14;;;;;;;17.83;10.77;;;;;;;6.36;74.19;99511.17;2252417;79;20940;-78
2021/11/24 12:50:15;;;;;;;15.60;8.60;;;;;;;6.46;73.85;99512.82;2252458;79;20932;-76
2021/11/24 12:53:15;;;;;;;12.00;8.40;;;;;;;6.51;73.64;99513.88;2258563;78;20971;-76
2021/11/24 12:56:16;;;;;;;17.93;9.50;;;;;;;6.53;72.23;99512.23;2265784;78;20947;-77
2021/11/24 12:59:17;;;;;;;13.53;9.57;;;;;;;6.56;72.85;99507.16;2266033;78;21395;-77
2021/11/24 13:02:17;;;;;;;12.83;9.80;;;;;;;6.55;72.45;99507.98;2265929;78;20952;-77
2021/11/24 13:05:18;;;;;;;23.97;11.07;;;;;;;6.55;72.69;99506.69;2266184;78;21366;-78
2021/11/24 13:08:18;;;;;;;14.80;10.20;;;;;;;6.57;73.50;99503.33;2266021;78;20971;-76
2021/11/24 13:11:19;;;;;;;12.80;9.17;;;;;;;6.63;73.69;99507.87;2266287;78;21014;-77
2021/11/24 13:14:20;;;;;;;12.90;8.83;;;;;;;6.62;72.41;99505.69;2265470;78;20928;-76
2021/11/24 13:17:20;;;;;;;15.23;10.00;;;;;;;6.61;72.80;99504.33;2264909;78;21271;-75
2021/11/24 13:20:21;;;;;;;16.70;10.20;;;;;;;6.56;72.36;99501.97;2264922;78;20907;-80
2021/11/24 13:23:21;;;;;;;19.83;11.40;;;;;;;6.57;73.12;99501.15;2266277;78;21334;-81
2021/11/24 13:26:22;;;;;;;18.67;11.13;;;;;;;6.55;72.54;99499.80;2266917;78;20959;-80
2021/11/24 13:29:25;;;;;;;16.43;10.77;;;;;;;6.50;72.78;99504.34;2267461;78;20951;-80
2021/11/24 13:32:25;;;;;;;14.73;9.03;;;;;;;6.49;73.11;99496.08;2266767;78;21003;-81
2021/11/24 13:35:25;;;;;;;12.53;8.80;;;;;;;6.47;72.88;99494.73;2267435;78;20932;-80
2021/11/24 13:38:26;;;;;;;12.87;9.33;;;;;;;6.44;72.81;99492.43;2268485;78;20975;-79
2021/11/24 13:41:27;;;;;;;19.87;10.83;;;;;;;6.37;72.92;99485.71;2268519;78;21334;-79
2021/11/24 13:44:27;;;;;;;24.87;12.17;;;;;;;6.33;72.92;99486.83;2268779;78;20963;-82
2021/11/24 13:47:28;;;;;;;15.67;9.93;;;;;;;6.33;73.50;99485.13;2268038;78;20943;-80
2021/11/24 13:50:28;;;;;;;11.53;9.13;;;;;;;6.36;72.71;99489.13;2268418;78;20999;-82
2021/11/24 13:53:29;;;;;;;14.07;9.13;;;;;;;6.29;73.34;99484.53;2253316;78;21063;-80
2021/11/24 13:56:30;;;;;;;16.40;9.50;;;;;;;6.23;73.28;99483.41;2253489;79;20995;-81
2021/11/24 13:59:31;;;;;;;11.23;8.23;;;;;;;6.19;73.55;99482.41;2253246;79;21386;-81
2021/11/24 14:02:33;;;;;;;15.90;9.70;;;;;;;6.17;73.35;99481.46;2253929;79;21620;-81
2021/11/24 14:05:33;;;;;;;18.00;11.83;;;;;;;6.09;73.42;99480.28;2253500;79;21643;-81